sensor_id;sensor_type;location;lat;lon;timestamp;P1;durP1;ratioP1;P2;durP2;ratioP2
51556;SDS011;38766;53.194;5.532;2023-07-28T00:01:30;30.35;;;8.52;;
51556;SDS011;38766;53.194;5.532;2023-07-28T00:03:56;27.17;;;8.18;;
51556;SDS011;38766;53.194;5.532;2023-07-28T00:06:22;27.98;;;8.80;;
51556;SDS011;38766;53.194;5.532;2023-07-28T00:08:48;33.03;;;8.32;;
51556;SDS011;38766;53.194;5.532;2023-07-28T00:11:15;37.05;;;9.35;;
51556;SDS011;38766;53.194;5.532;2023-07-28T00:13:42;29.25;;;8.27;;
51556;SDS011;38766;53.194;5.532;2023-07-28T00:16:08;27.70;;;8.50;;
51556;SDS011;38766;53.194;5.532;2023-07-28T00:18:35;32.88;;;8.18;;
51556;SDS011;38766;53.194;5.532;2023-07-28T00:21:00;31.15;;;8.00;;
51556;SDS011;38766;53.194;5.532;2023-07-28T00:23:26;31.60;;;8.15;;
51556;SDS011;38766;53.194;5.532;2023-07-28T00:25:52;33.00;;;9.18;;
51556;SDS011;38766;53.194;5.532;2023-07-28T00:28:18;28.10;;;8.57;;
51556;SDS011;38766;53.194;5.532;2023-07-28T00:30:43;35.50;;;8.80;;
51556;SDS011;38766;53.194;5.532;2023-07-28T00:33:09;41.88;;;9.05;;
51556;SDS011;38766;53.194;5.532;2023-07-28T00:35:35;27.88;;;8.10;;
51556;SDS011;38766;53.194;5.532;2023-07-28T00:38:00;29.85;;;7.38;;
51556;SDS011;38766;53.194;5.532;2023-07-28T00:40:26;31.58;;;8.13;;
51556;SDS011;38766;53.194;5.532;2023-07-28T00:42:52;25.40;;;8.07;;
51556;SDS011;38766;53.194;5.532;2023-07-28T00:45:17;29.05;;;8.73;;
51556;SDS011;38766;53.194;5.532;2023-07-28T00:47:43;32.22;;;8.55;;
51556;SDS011;38766;53.194;5.532;2023-07-28T00:50:10;30.70;;;8.55;;
51556;SDS011;38766;53.194;5.532;2023-07-28T00:52:36;32.70;;;7.90;;
51556;SDS011;38766;53.194;5.532;2023-07-28T00:55:03;24.75;;;7.20;;
51556;SDS011;38766;53.194;5.532;2023-07-28T00:57:28;31.80;;;8.27;;
51556;SDS011;38766;53.194;5.532;2023-07-28T00:59:54;43.13;;;7.65;;
51556;SDS011;38766;53.194;5.532;2023-07-28T01:02:20;31.00;;;7.72;;
51556;SDS011;38766;53.194;5.532;2023-07-28T01:04:46;23.42;;;6.85;;
51556;SDS011;38766;53.194;5.532;2023-07-28T01:07:17;31.27;;;7.15;;
51556;SDS011;38766;53.194;5.532;2023-07-28T01:12:35;35.53;;;7.18;;
51556;SDS011;38766;53.194;5.532;2023-07-28T01:15:01;27.10;;;7.97;;
51556;SDS011;38766;53.194;5.532;2023-07-28T01:17:27;24.77;;;7.25;;
51556;SDS011;38766;53.194;5.532;2023-07-28T01:19:53;25.25;;;7.40;;
51556;SDS011;38766;53.194;5.532;2023-07-28T01:27:42;22.58;;;6.93;;
51556;SDS011;38766;53.194;5.532;2023-07-28T01:30:11;22.63;;;6.07;;
51556;SDS011;38766;53.194;5.532;2023-07-28T01:32:37;22.20;;;6.00;;
51556;SDS011;38766;53.194;5.532;2023-07-28T01:35:03;23.45;;;6.40;;
51556;SDS011;38766;53.194;5.532;2023-07-28T01:37:29;21.33;;;6.43;;
51556;SDS011;38766;53.194;5.532;2023-07-28T01:39:55;32.28;;;6.50;;
51556;SDS011;38766;53.194;5.532;2023-07-28T01:42:22;17.85;;;6.70;;
51556;SDS011;38766;53.194;5.532;2023-07-28T01:44:48;22.33;;;6.15;;
51556;SDS011;38766;53.194;5.532;2023-07-28T01:47:14;23.35;;;6.85;;
51556;SDS011;38766;53.194;5.532;2023-07-28T01:49:40;20.33;;;5.40;;
51556;SDS011;38766;53.194;5.532;2023-07-28T01:52:06;23.42;;;6.75;;
51556;SDS011;38766;53.194;5.532;2023-07-28T01:54:34;23.98;;;6.03;;
51556;SDS011;38766;53.194;5.532;2023-07-28T01:57:00;29.70;;;6.35;;
51556;SDS011;38766;53.194;5.532;2023-07-28T01:59:26;16.83;;;5.60;;
51556;SDS011;38766;53.194;5.532;2023-07-28T02:01:51;19.58;;;5.43;;
51556;SDS011;38766;53.194;5.532;2023-07-28T02:04:17;16.67;;;7.40;;
51556;SDS011;38766;53.194;5.532;2023-07-28T02:06:43;20.67;;;6.85;;
51556;SDS011;38766;53.194;5.532;2023-07-28T02:09:08;17.88;;;5.72;;
51556;SDS011;38766;53.194;5.532;2023-07-28T02:11:34;19.40;;;5.40;;
51556;SDS011;38766;53.194;5.532;2023-07-28T02:14:03;23.50;;;5.90;;
51556;SDS011;38766;53.194;5.532;2023-07-28T02:16:28;15.85;;;5.22;;
51556;SDS011;38766;53.194;5.532;2023-07-28T02:18:55;21.92;;;6.03;;
51556;SDS011;38766;53.194;5.532;2023-07-28T02:21:21;16.80;;;5.40;;
51556;SDS011;38766;53.194;5.532;2023-07-28T02:23:47;16.50;;;5.22;;
51556;SDS011;38766;53.194;5.532;2023-07-28T02:26:13;18.25;;;5.97;;
51556;SDS011;38766;53.194;5.532;2023-07-28T02:28:39;18.17;;;5.75;;
51556;SDS011;38766;53.194;5.532;2023-07-28T02:31:04;17.38;;;5.72;;
51556;SDS011;38766;53.194;5.532;2023-07-28T02:33:30;16.42;;;4.88;;
51556;SDS011;38766;53.194;5.532;2023-07-28T02:35:58;19.45;;;5.68;;
51556;SDS011;38766;53.194;5.532;2023-07-28T02:38:24;17.23;;;6.15;;
51556;SDS011;38766;53.194;5.532;2023-07-28T02:40:50;14.77;;;5.00;;
51556;SDS011;38766;53.194;5.532;2023-07-28T02:43:15;17.42;;;4.80;;
51556;SDS011;38766;53.194;5.532;2023-07-28T02:45:41;17.13;;;4.68;;
51556;SDS011;38766;53.194;5.532;2023-07-28T02:48:07;20.13;;;4.63;;
51556;SDS011;38766;53.194;5.532;2023-07-28T02:50:33;13.10;;;4.18;;
51556;SDS011;38766;53.194;5.532;2023-07-28T02:52:58;12.90;;;4.97;;
51556;SDS011;38766;53.194;5.532;2023-07-28T02:55:24;21.63;;;4.93;;
51556;SDS011;38766;53.194;5.532;2023-07-28T02:57:53;16.48;;;4.70;;
51556;SDS011;38766;53.194;5.532;2023-07-28T03:00:18;15.68;;;4.75;;
51556;SDS011;38766;53.194;5.532;2023-07-28T03:02:44;13.40;;;5.45;;
51556;SDS011;38766;53.194;5.532;2023-07-28T03:05:09;14.73;;;4.88;;
51556;SDS011;38766;53.194;5.532;2023-07-28T03:07:35;17.35;;;4.97;;
51556;SDS011;38766;53.194;5.532;2023-07-28T03:10:01;11.48;;;4.63;;
51556;SDS011;38766;53.194;5.532;2023-07-28T03:12:26;12.60;;;4.20;;
51556;SDS011;38766;53.194;5.532;2023-07-28T03:14:52;12.98;;;5.07;;
51556;SDS011;38766;53.194;5.532;2023-07-28T03:17:17;10.82;;;4.03;;
51556;SDS011;38766;53.194;5.532;2023-07-28T03:19:43;13.88;;;4.18;;
51556;SDS011;38766;53.194;5.532;2023-07-28T03:22:09;11.60;;;4.13;;
51556;SDS011;38766;53.194;5.532;2023-07-28T03:24:34;15.52;;;4.30;;
51556;SDS011;38766;53.194;5.532;2023-07-28T03:27:00;12.60;;;3.95;;
51556;SDS011;38766;53.194;5.532;2023-07-28T03:29:26;12.18;;;4.30;;
51556;SDS011;38766;53.194;5.532;2023-07-28T03:31:51;12.02;;;4.63;;
51556;SDS011;38766;53.194;5.532;2023-07-28T03:34:17;10.02;;;4.28;;
51556;SDS011;38766;53.194;5.532;2023-07-28T03:36:43;13.05;;;4.28;;
51556;SDS011;38766;53.194;5.532;2023-07-28T03:39:08;12.45;;;4.10;;
51556;SDS011;38766;53.194;5.532;2023-07-28T03:41:37;12.48;;;4.45;;
51556;SDS011;38766;53.194;5.532;2023-07-28T03:44:02;14.18;;;4.80;;
51556;SDS011;38766;53.194;5.532;2023-07-28T03:46:28;13.48;;;4.38;;
51556;SDS011;38766;53.194;5.532;2023-07-28T03:48:54;10.68;;;4.72;;
51556;SDS011;38766;53.194;5.532;2023-07-28T03:51:19;12.63;;;4.70;;
51556;SDS011;38766;53.194;5.532;2023-07-28T03:53:45;16.52;;;5.22;;
51556;SDS011;38766;53.194;5.532;2023-07-28T03:56:11;9.98;;;5.07;;
51556;SDS011;38766;53.194;5.532;2023-07-28T03:58:37;15.02;;;5.38;;
51556;SDS011;38766;53.194;5.532;2023-07-28T04:01:02;16.17;;;6.32;;
51556;SDS011;38766;53.194;5.532;2023-07-28T04:03:28;9.90;;;6.28;;
51556;SDS011;38766;53.194;5.532;2023-07-28T04:05:54;11.88;;;7.47;;
51556;SDS011;38766;53.194;5.532;2023-07-28T04:08:19;13.80;;;8.48;;
51556;SDS011;38766;53.194;5.532;2023-07-28T04:10:45;20.70;;;8.43;;
51556;SDS011;38766;53.194;5.532;2023-07-28T04:13:11;11.20;;;8.38;;
51556;SDS011;38766;53.194;5.532;2023-07-28T04:15:37;10.60;;;9.52;;
51556;SDS011;38766;53.194;5.532;2023-07-28T04:18:03;18.30;;;10.50;;
51556;SDS011;38766;53.194;5.532;2023-07-28T04:20:28;15.60;;;10.55;;
51556;SDS011;38766;53.194;5.532;2023-07-28T04:22:54;12.07;;;10.45;;
51556;SDS011;38766;53.194;5.532;2023-07-28T04:25:19;16.60;;;10.95;;
51556;SDS011;38766;53.194;5.532;2023-07-28T04:27:45;15.77;;;10.70;;
51556;SDS011;38766;53.194;5.532;2023-07-28T04:30:11;18.83;;;10.48;;
51556;SDS011;38766;53.194;5.532;2023-07-28T04:32:37;18.15;;;10.70;;
51556;SDS011;38766;53.194;5.532;2023-07-28T04:35:02;17.40;;;11.20;;
51556;SDS011;38766;53.194;5.532;2023-07-28T04:37:30;15.50;;;11.02;;
51556;SDS011;38766;53.194;5.532;2023-07-28T04:39:56;15.15;;;9.73;;
51556;SDS011;38766;53.194;5.532;2023-07-28T04:42:27;11.88;;;9.23;;
51556;SDS011;38766;53.194;5.532;2023-07-28T04:44:53;13.60;;;9.45;;
51556;SDS011;38766;53.194;5.532;2023-07-28T04:47:18;14.10;;;10.30;;
51556;SDS011;38766;53.194;5.532;2023-07-28T04:49:44;17.98;;;10.50;;
51556;SDS011;38766;53.194;5.532;2023-07-28T04:52:10;15.52;;;11.02;;
51556;SDS011;38766;53.194;5.532;2023-07-28T04:54:36;13.85;;;11.20;;
51556;SDS011;38766;53.194;5.532;2023-07-28T04:57:02;15.98;;;10.93;;
51556;SDS011;38766;53.194;5.532;2023-07-28T04:59:28;15.07;;;11.27;;
51556;SDS011;38766;53.194;5.532;2023-07-28T05:01:53;12.32;;;10.32;;
51556;SDS011;38766;53.194;5.532;2023-07-28T05:04:22;13.38;;;10.70;;
51556;SDS011;38766;53.194;5.532;2023-07-28T05:06:47;16.80;;;9.68;;
51556;SDS011;38766;53.194;5.532;2023-07-28T05:09:13;17.08;;;10.95;;
51556;SDS011;38766;53.194;5.532;2023-07-28T05:11:39;20.92;;;10.55;;
51556;SDS011;38766;53.194;5.532;2023-07-28T05:14:04;20.38;;;11.13;;
51556;SDS011;38766;53.194;5.532;2023-07-28T05:16:33;15.05;;;11.52;;
51556;SDS011;38766;53.194;5.532;2023-07-28T05:18:59;11.07;;;9.82;;
51556;SDS011;38766;53.194;5.532;2023-07-28T05:21:25;14.68;;;10.35;;
51556;SDS011;38766;53.194;5.532;2023-07-28T05:23:50;14.98;;;11.55;;
51556;SDS011;38766;53.194;5.532;2023-07-28T05:26:16;13.05;;;10.55;;
51556;SDS011;38766;53.194;5.532;2023-07-28T05:28:42;15.73;;;11.85;;
51556;SDS011;38766;53.194;5.532;2023-07-28T05:31:07;13.57;;;11.77;;
51556;SDS011;38766;53.194;5.532;2023-07-28T05:33:33;13.88;;;12.48;;
51556;SDS011;38766;53.194;5.532;2023-07-28T05:36:02;16.85;;;13.45;;
51556;SDS011;38766;53.194;5.532;2023-07-28T05:38:29;16.55;;;14.23;;
51556;SDS011;38766;53.194;5.532;2023-07-28T05:40:58;16.92;;;13.25;;
51556;SDS011;38766;53.194;5.532;2023-07-28T05:43:26;17.90;;;14.88;;
51556;SDS011;38766;53.194;5.532;2023-07-28T05:45:59;18.33;;;14.20;;
51556;SDS011;38766;53.194;5.532;2023-07-28T05:48:25;19.15;;;15.07;;
51556;SDS011;38766;53.194;5.532;2023-07-28T05:50:51;20.80;;;15.15;;
51556;SDS011;38766;53.194;5.532;2023-07-28T05:53:18;15.90;;;14.13;;
51556;SDS011;38766;53.194;5.532;2023-07-28T05:55:49;14.73;;;12.98;;
51556;SDS011;38766;53.194;5.532;2023-07-28T05:58:15;16.52;;;12.68;;
51556;SDS011;38766;53.194;5.532;2023-07-28T06:00:40;16.42;;;13.50;;
51556;SDS011;38766;53.194;5.532;2023-07-28T06:03:07;15.20;;;13.32;;
51556;SDS011;38766;53.194;5.532;2023-07-28T06:05:34;15.38;;;13.38;;
51556;SDS011;38766;53.194;5.532;2023-07-28T06:08:00;16.00;;;11.43;;
51556;SDS011;38766;53.194;5.532;2023-07-28T06:10:26;12.85;;;10.38;;
51556;SDS011;38766;53.194;5.532;2023-07-28T06:12:51;15.95;;;11.85;;
51556;SDS011;38766;53.194;5.532;2023-07-28T06:15:17;14.77;;;11.55;;
51556;SDS011;38766;53.194;5.532;2023-07-28T06:17:46;18.55;;;12.60;;
51556;SDS011;38766;53.194;5.532;2023-07-28T06:20:11;13.80;;;12.30;;
51556;SDS011;38766;53.194;5.532;2023-07-28T06:22:37;13.00;;;11.05;;
51556;SDS011;38766;53.194;5.532;2023-07-28T06:25:03;13.45;;;11.95;;
51556;SDS011;38766;53.194;5.532;2023-07-28T06:27:28;14.10;;;11.23;;
51556;SDS011;38766;53.194;5.532;2023-07-28T06:29:54;12.90;;;10.95;;
51556;SDS011;38766;53.194;5.532;2023-07-28T06:32:20;15.18;;;11.65;;
51556;SDS011;38766;53.194;5.532;2023-07-28T06:34:48;13.98;;;11.52;;
51556;SDS011;38766;53.194;5.532;2023-07-28T06:37:14;15.32;;;10.95;;
51556;SDS011;38766;53.194;5.532;2023-07-28T06:39:41;12.93;;;11.20;;
51556;SDS011;38766;53.194;5.532;2023-07-28T06:42:07;13.18;;;11.63;;
51556;SDS011;38766;53.194;5.532;2023-07-28T06:44:32;10.45;;;9.35;;
51556;SDS011;38766;53.194;5.532;2023-07-28T06:46:58;12.75;;;10.93;;
51556;SDS011;38766;53.194;5.532;2023-07-28T06:49:24;11.93;;;10.73;;
51556;SDS011;38766;53.194;5.532;2023-07-28T06:51:49;10.98;;;9.38;;
51556;SDS011;38766;53.194;5.532;2023-07-28T06:54:15;11.48;;;10.27;;
51556;SDS011;38766;53.194;5.532;2023-07-28T06:56:40;11.98;;;10.75;;
51556;SDS011;38766;53.194;5.532;2023-07-28T06:59:06;9.85;;;8.85;;
51556;SDS011;38766;53.194;5.532;2023-07-28T07:01:32;11.50;;;9.35;;
51556;SDS011;38766;53.194;5.532;2023-07-28T07:03:58;10.95;;;9.90;;
51556;SDS011;38766;53.194;5.532;2023-07-28T07:06:24;11.93;;;10.73;;
51556;SDS011;38766;53.194;5.532;2023-07-28T07:08:50;14.88;;;11.00;;
51556;SDS011;38766;53.194;5.532;2023-07-28T07:11:16;11.90;;;10.65;;
51556;SDS011;38766;53.194;5.532;2023-07-28T07:13:41;11.85;;;9.98;;
51556;SDS011;38766;53.194;5.532;2023-07-28T07:16:14;11.48;;;9.27;;
51556;SDS011;38766;53.194;5.532;2023-07-28T07:18:41;8.85;;;7.95;;
51556;SDS011;38766;53.194;5.532;2023-07-28T07:21:08;10.65;;;9.55;;
51556;SDS011;38766;53.194;5.532;2023-07-28T07:23:35;13.05;;;10.07;;
51556;SDS011;38766;53.194;5.532;2023-07-28T07:26:01;12.32;;;11.02;;
51556;SDS011;38766;53.194;5.532;2023-07-28T07:28:27;10.82;;;9.73;;
51556;SDS011;38766;53.194;5.532;2023-07-28T07:30:53;10.60;;;9.50;;
51556;SDS011;38766;53.194;5.532;2023-07-28T07:33:20;11.38;;;9.30;;
51556;SDS011;38766;53.194;5.532;2023-07-28T07:35:45;11.75;;;10.50;;
51556;SDS011;38766;53.194;5.532;2023-07-28T07:38:11;14.48;;;10.27;;
51556;SDS011;38766;53.194;5.532;2023-07-28T07:40:37;17.58;;;12.38;;
51556;SDS011;38766;53.194;5.532;2023-07-28T07:43:03;15.15;;;12.13;;
51556;SDS011;38766;53.194;5.532;2023-07-28T07:45:32;15.18;;;12.02;;
51556;SDS011;38766;53.194;5.532;2023-07-28T07:47:58;15.98;;;11.38;;
51556;SDS011;38766;53.194;5.532;2023-07-28T07:50:24;13.32;;;11.10;;
51556;SDS011;38766;53.194;5.532;2023-07-28T07:52:50;14.43;;;10.38;;
51556;SDS011;38766;53.194;5.532;2023-07-28T07:55:16;11.95;;;10.60;;
51556;SDS011;38766;53.194;5.532;2023-07-28T07:57:41;12.45;;;10.90;;
51556;SDS011;38766;53.194;5.532;2023-07-28T08:00:07;12.07;;;10.68;;
51556;SDS011;38766;53.194;5.532;2023-07-28T08:02:34;13.00;;;11.32;;
51556;SDS011;38766;53.194;5.532;2023-07-28T08:05:00;11.27;;;9.77;;
51556;SDS011;38766;53.194;5.532;2023-07-28T08:07:25;12.48;;;8.95;;
51556;SDS011;38766;53.194;5.532;2023-07-28T08:09:51;11.63;;;9.88;;
51556;SDS011;38766;53.194;5.532;2023-07-28T08:12:17;12.38;;;9.30;;
51556;SDS011;38766;53.194;5.532;2023-07-28T08:14:43;9.73;;;8.73;;
51556;SDS011;38766;53.194;5.532;2023-07-28T08:17:11;9.80;;;8.63;;
51556;SDS011;38766;53.194;5.532;2023-07-28T08:19:37;9.27;;;7.75;;
51556;SDS011;38766;53.194;5.532;2023-07-28T08:22:02;7.63;;;6.85;;
51556;SDS011;38766;53.194;5.532;2023-07-28T08:24:28;8.68;;;6.80;;
51556;SDS011;38766;53.194;5.532;2023-07-28T08:26:54;8.55;;;6.97;;
51556;SDS011;38766;53.194;5.532;2023-07-28T08:29:20;7.10;;;6.40;;
51556;SDS011;38766;53.194;5.532;2023-07-28T08:31:46;8.23;;;6.53;;
51556;SDS011;38766;53.194;5.532;2023-07-28T08:34:12;6.82;;;6.13;;
51556;SDS011;38766;53.194;5.532;2023-07-28T08:36:37;6.78;;;5.93;;
51556;SDS011;38766;53.194;5.532;2023-07-28T08:39:03;6.50;;;5.55;;
51556;SDS011;38766;53.194;5.532;2023-07-28T08:41:30;6.43;;;5.82;;
51556;SDS011;38766;53.194;5.532;2023-07-28T08:43:55;6.10;;;5.60;;
51556;SDS011;38766;53.194;5.532;2023-07-28T08:46:22;7.38;;;6.55;;
51556;SDS011;38766;53.194;5.532;2023-07-28T08:48:48;7.15;;;6.15;;
51556;SDS011;38766;53.194;5.532;2023-07-28T08:51:14;7.63;;;5.60;;
51556;SDS011;38766;53.194;5.532;2023-07-28T08:53:39;8.82;;;5.60;;
51556;SDS011;38766;53.194;5.532;2023-07-28T08:56:05;7.13;;;6.43;;
51556;SDS011;38766;53.194;5.532;2023-07-28T08:58:32;8.57;;;5.78;;
51556;SDS011;38766;53.194;5.532;2023-07-28T09:00:58;5.72;;;5.22;;
51556;SDS011;38766;53.194;5.532;2023-07-28T09:03:27;5.22;;;4.72;;
51556;SDS011;38766;53.194;5.532;2023-07-28T09:06:00;6.43;;;5.22;;
51556;SDS011;38766;53.194;5.532;2023-07-28T09:08:26;8.38;;;5.78;;
51556;SDS011;38766;53.194;5.532;2023-07-28T09:10:52;6.47;;;5.88;;
51556;SDS011;38766;53.194;5.532;2023-07-28T09:13:19;7.28;;;6.55;;
51556;SDS011;38766;53.194;5.532;2023-07-28T09:15:45;5.28;;;4.78;;
51556;SDS011;38766;53.194;5.532;2023-07-28T09:18:12;5.35;;;4.13;;
51556;SDS011;38766;53.194;5.532;2023-07-28T09:20:44;7.25;;;4.47;;
51556;SDS011;38766;53.194;5.532;2023-07-28T09:23:10;4.97;;;4.47;;
51556;SDS011;38766;53.194;5.532;2023-07-28T09:25:38;5.10;;;4.60;;
51556;SDS011;38766;53.194;5.532;2023-07-28T09:28:04;30.52;;;7.30;;
51556;SDS011;38766;53.194;5.532;2023-07-28T09:30:47;8.00;;;4.93;;
51556;SDS011;38766;53.194;5.532;2023-07-28T09:33:14;11.38;;;5.22;;
51556;SDS011;38766;53.194;5.532;2023-07-28T09:35:54;7.03;;;4.95;;
51556;SDS011;38766;53.194;5.532;2023-07-28T09:38:20;29.17;;;6.32;;
51556;SDS011;38766;53.194;5.532;2023-07-28T09:40:47;6.68;;;4.38;;
51556;SDS011;38766;53.194;5.532;2023-07-28T09:43:14;8.88;;;4.60;;
51556;SDS011;38766;53.194;5.532;2023-07-28T09:45:39;5.30;;;4.47;;
51556;SDS011;38766;53.194;5.532;2023-07-28T09:48:07;7.18;;;4.88;;
51556;SDS011;38766;53.194;5.532;2023-07-28T09:50:36;5.60;;;4.43;;
51556;SDS011;38766;53.194;5.532;2023-07-28T09:53:03;5.25;;;4.70;;
51556;SDS011;38766;53.194;5.532;2023-07-28T09:55:30;4.75;;;4.32;;
51556;SDS011;38766;53.194;5.532;2023-07-28T09:58:00;6.40;;;4.10;;
51556;SDS011;38766;53.194;5.532;2023-07-28T10:00:31;4.90;;;4.50;;
51556;SDS011;38766;53.194;5.532;2023-07-28T10:02:57;6.00;;;4.30;;
51556;SDS011;38766;53.194;5.532;2023-07-28T10:05:24;7.22;;;5.15;;
51556;SDS011;38766;53.194;5.532;2023-07-28T10:07:51;6.75;;;5.13;;
51556;SDS011;38766;53.194;5.532;2023-07-28T10:10:17;5.50;;;4.95;;
51556;SDS011;38766;53.194;5.532;2023-07-28T10:12:48;6.05;;;5.18;;
51556;SDS011;38766;53.194;5.532;2023-07-28T10:15:16;7.72;;;5.00;;
51556;SDS011;38766;53.194;5.532;2023-07-28T10:20:30;6.25;;;5.43;;
51556;SDS011;38766;53.194;5.532;2023-07-28T10:23:03;5.72;;;4.82;;
51556;SDS011;38766;53.194;5.532;2023-07-28T10:25:31;6.25;;;4.65;;
51556;SDS011;38766;53.194;5.532;2023-07-28T10:27:58;6.43;;;4.97;;
51556;SDS011;38766;53.194;5.532;2023-07-28T10:30:24;4.88;;;4.38;;
51556;SDS011;38766;53.194;5.532;2023-07-28T10:32:49;5.18;;;4.60;;
51556;SDS011;38766;53.194;5.532;2023-07-28T10:37:47;5.82;;;4.03;;
51556;SDS011;38766;53.194;5.532;2023-07-28T10:42:56;6.38;;;4.15;;
51556;SDS011;38766;53.194;5.532;2023-07-28T10:45:25;3.80;;;3.50;;
51556;SDS011;38766;53.194;5.532;2023-07-28T10:47:53;4.18;;;3.78;;
51556;SDS011;38766;53.194;5.532;2023-07-28T10:50:21;4.00;;;3.67;;
51556;SDS011;38766;53.194;5.532;2023-07-28T10:52:47;6.75;;;3.08;;
51556;SDS011;38766;53.194;5.532;2023-07-28T10:55:17;4.60;;;3.75;;
51556;SDS011;38766;53.194;5.532;2023-07-28T10:57:45;5.63;;;3.90;;
51556;SDS011;38766;53.194;5.532;2023-07-28T11:00:13;4.15;;;3.50;;
51556;SDS011;38766;53.194;5.532;2023-07-28T11:02:44;6.05;;;3.60;;
51556;SDS011;38766;53.194;5.532;2023-07-28T11:05:19;5.38;;;3.20;;
51556;SDS011;38766;53.194;5.532;2023-07-28T11:07:47;4.80;;;3.65;;
51556;SDS011;38766;53.194;5.532;2023-07-28T11:10:13;4.15;;;3.50;;
51556;SDS011;38766;53.194;5.532;2023-07-28T11:12:49;4.82;;;3.40;;
51556;SDS011;38766;53.194;5.532;2023-07-28T11:15:16;4.65;;;3.28;;
51556;SDS011;38766;53.194;5.532;2023-07-28T11:17:44;4.05;;;3.30;;
51556;SDS011;38766;53.194;5.532;2023-07-28T11:20:14;5.82;;;3.35;;
51556;SDS011;38766;53.194;5.532;2023-07-28T11:22:41;4.63;;;3.22;;
51556;SDS011;38766;53.194;5.532;2023-07-28T11:25:08;4.40;;;3.40;;
51556;SDS011;38766;53.194;5.532;2023-07-28T11:27:37;4.38;;;3.53;;
51556;SDS011;38766;53.194;5.532;2023-07-28T11:30:04;6.28;;;3.55;;
51556;SDS011;38766;53.194;5.532;2023-07-28T11:32:35;3.97;;;3.58;;
51556;SDS011;38766;53.194;5.532;2023-07-28T11:35:02;3.78;;;3.35;;
51556;SDS011;38766;53.194;5.532;2023-07-28T11:37:35;4.25;;;3.20;;
51556;SDS011;38766;53.194;5.532;2023-07-28T11:40:03;5.07;;;3.55;;
51556;SDS011;38766;53.194;5.532;2023-07-28T11:42:34;3.70;;;3.30;;
51556;SDS011;38766;53.194;5.532;2023-07-28T11:45:04;3.83;;;2.90;;
51556;SDS011;38766;53.194;5.532;2023-07-28T11:47:31;4.50;;;3.30;;
51556;SDS011;38766;53.194;5.532;2023-07-28T11:49:57;6.72;;;3.20;;
51556;SDS011;38766;53.194;5.532;2023-07-28T11:52:44;5.97;;;2.95;;
51556;SDS011;38766;53.194;5.532;2023-07-28T11:55:11;3.63;;;3.33;;
51556;SDS011;38766;53.194;5.532;2023-07-28T11:57:36;4.78;;;3.42;;
51556;SDS011;38766;53.194;5.532;2023-07-28T12:00:04;4.35;;;3.42;;
51556;SDS011;38766;53.194;5.532;2023-07-28T12:02:31;4.65;;;2.80;;
51556;SDS011;38766;53.194;5.532;2023-07-28T12:04:58;6.97;;;3.10;;
51556;SDS011;38766;53.194;5.532;2023-07-28T12:07:31;3.90;;;2.50;;
51556;SDS011;38766;53.194;5.532;2023-07-28T12:09:57;3.85;;;2.47;;
51556;SDS011;38766;53.194;5.532;2023-07-28T12:12:41;4.68;;;2.50;;
51556;SDS011;38766;53.194;5.532;2023-07-28T12:15:19;3.10;;;2.42;;
51556;SDS011;38766;53.194;5.532;2023-07-28T12:18:08;5.40;;;2.83;;
51556;SDS011;38766;53.194;5.532;2023-07-28T12:20:45;2.47;;;2.20;;
51556;SDS011;38766;53.194;5.532;2023-07-28T12:23:15;2.35;;;2.17;;
51556;SDS011;38766;53.194;5.532;2023-07-28T12:25:43;2.60;;;2.40;;
51556;SDS011;38766;53.194;5.532;2023-07-28T12:28:09;2.20;;;1.90;;
51556;SDS011;38766;53.194;5.532;2023-07-28T12:30:35;2.70;;;2.15;;
51556;SDS011;38766;53.194;5.532;2023-07-28T12:33:02;2.25;;;2.10;;
51556;SDS011;38766;53.194;5.532;2023-07-28T12:35:29;3.63;;;2.15;;
51556;SDS011;38766;53.194;5.532;2023-07-28T12:38:03;4.03;;;2.67;;
51556;SDS011;38766;53.194;5.532;2023-07-28T12:40:30;3.35;;;2.22;;
51556;SDS011;38766;53.194;5.532;2023-07-28T12:42:56;4.22;;;2.45;;
51556;SDS011;38766;53.194;5.532;2023-07-28T12:45:23;2.10;;;1.90;;
51556;SDS011;38766;53.194;5.532;2023-07-28T12:47:50;2.38;;;1.80;;
51556;SDS011;38766;53.194;5.532;2023-07-28T12:50:18;2.25;;;1.80;;
51556;SDS011;38766;53.194;5.532;2023-07-28T12:52:44;3.03;;;2.20;;
51556;SDS011;38766;53.194;5.532;2023-07-28T12:55:09;3.45;;;2.05;;
51556;SDS011;38766;53.194;5.532;2023-07-28T12:57:35;2.15;;;1.90;;
51556;SDS011;38766;53.194;5.532;2023-07-28T13:00:00;5.78;;;2.60;;
51556;SDS011;38766;53.194;5.532;2023-07-28T13:02:31;2.38;;;2.17;;
51556;SDS011;38766;53.194;5.532;2023-07-28T13:04:57;3.17;;;2.40;;
51556;SDS011;38766;53.194;5.532;2023-07-28T13:07:22;2.33;;;1.90;;
51556;SDS011;38766;53.194;5.532;2023-07-28T13:09:48;3.80;;;2.33;;
51556;SDS011;38766;53.194;5.532;2023-07-28T13:12:14;4.10;;;2.60;;
51556;SDS011;38766;53.194;5.532;2023-07-28T13:14:39;3.10;;;2.20;;
51556;SDS011;38766;53.194;5.532;2023-07-28T13:17:05;2.95;;;2.20;;
51556;SDS011;38766;53.194;5.532;2023-07-28T13:19:31;3.88;;;2.45;;
51556;SDS011;38766;53.194;5.532;2023-07-28T13:21:57;3.65;;;2.42;;
51556;SDS011;38766;53.194;5.532;2023-07-28T13:24:22;3.13;;;2.65;;
51556;SDS011;38766;53.194;5.532;2023-07-28T13:26:48;4.63;;;2.38;;
51556;SDS011;38766;53.194;5.532;2023-07-28T13:29:14;3.97;;;2.40;;
51556;SDS011;38766;53.194;5.532;2023-07-28T13:31:39;3.75;;;2.50;;
51556;SDS011;38766;53.194;5.532;2023-07-28T13:34:05;3.17;;;2.30;;
51556;SDS011;38766;53.194;5.532;2023-07-28T13:36:31;3.90;;;2.75;;
51556;SDS011;38766;53.194;5.532;2023-07-28T13:38:56;3.10;;;2.60;;
51556;SDS011;38766;53.194;5.532;2023-07-28T13:41:22;3.55;;;2.50;;
51556;SDS011;38766;53.194;5.532;2023-07-28T13:43:47;6.10;;;2.47;;
51556;SDS011;38766;53.194;5.532;2023-07-28T13:46:13;2.72;;;2.47;;
51556;SDS011;38766;53.194;5.532;2023-07-28T13:48:39;3.00;;;2.28;;
51556;SDS011;38766;53.194;5.532;2023-07-28T13:51:04;3.50;;;2.38;;
51556;SDS011;38766;53.194;5.532;2023-07-28T13:53:30;2.67;;;2.33;;
51556;SDS011;38766;53.194;5.532;2023-07-28T13:55:56;3.05;;;2.75;;
51556;SDS011;38766;53.194;5.532;2023-07-28T13:58:21;2.20;;;2.00;;
51556;SDS011;38766;53.194;5.532;2023-07-28T14:00:48;3.42;;;2.92;;
51556;SDS011;38766;53.194;5.532;2023-07-28T14:03:13;3.30;;;2.45;;
51556;SDS011;38766;53.194;5.532;2023-07-28T14:05:40;4.15;;;1.88;;
51556;SDS011;38766;53.194;5.532;2023-07-28T14:08:06;2.22;;;2.00;;
51556;SDS011;38766;53.194;5.532;2023-07-28T14:10:32;2.47;;;2.10;;
51556;SDS011;38766;53.194;5.532;2023-07-28T14:12:57;2.25;;;2.05;;
51556;SDS011;38766;53.194;5.532;2023-07-28T14:15:24;3.85;;;2.47;;
51556;SDS011;38766;53.194;5.532;2023-07-28T14:17:49;4.45;;;2.47;;
51556;SDS011;38766;53.194;5.532;2023-07-28T14:20:15;2.50;;;2.20;;
51556;SDS011;38766;53.194;5.532;2023-07-28T14:22:40;6.78;;;1.90;;
51556;SDS011;38766;53.194;5.532;2023-07-28T14:25:06;3.28;;;1.40;;
51556;SDS011;38766;53.194;5.532;2023-07-28T14:27:35;1.45;;;1.35;;
51556;SDS011;38766;53.194;5.532;2023-07-28T14:30:01;1.70;;;1.60;;
51556;SDS011;38766;53.194;5.532;2023-07-28T14:32:27;4.40;;;2.97;;
51556;SDS011;38766;53.194;5.532;2023-07-28T14:34:52;10.38;;;4.25;;
51556;SDS011;38766;53.194;5.532;2023-07-28T14:37:18;7.15;;;4.40;;
51556;SDS011;38766;53.194;5.532;2023-07-28T14:39:44;5.35;;;3.75;;
51556;SDS011;38766;53.194;5.532;2023-07-28T14:42:10;3.33;;;2.90;;
51556;SDS011;38766;53.194;5.532;2023-07-28T14:44:35;8.00;;;3.35;;
51556;SDS011;38766;53.194;5.532;2023-07-28T14:47:01;4.68;;;2.90;;
51556;SDS011;38766;53.194;5.532;2023-07-28T14:49:27;4.78;;;3.00;;
51556;SDS011;38766;53.194;5.532;2023-07-28T14:51:56;9.15;;;4.95;;